sensor_id;sensor_type;location;lat;lon;timestamp;pressure;altitude;pressure_sealevel;temperature;humidity
74678;BME280;67324;56.326;43.982;2023-05-07T00:02:08;101340.16;;;18.02;43.34
74678;BME280;67324;56.326;43.982;2023-05-07T00:04:35;101343.00;;;17.99;43.34
74678;BME280;67324;56.326;43.982;2023-05-07T00:07:03;101343.59;;;18.02;43.31
74678;BME280;67324;56.326;43.982;2023-05-07T00:09:29;101348.09;;;18.00;43.17
74678;BME280;67324;56.326;43.982;2023-05-07T00:11:55;101355.13;;;18.00;43.09
74678;BME280;67324;56.326;43.982;2023-05-07T00:14:21;101348.34;;;17.97;43.29
74678;BME280;67324;56.326;43.982;2023-05-07T00:16:47;101350.72;;;18.00;43.24
74678;BME280;67324;56.326;43.982;2023-05-07T00:19:13;101348.44;;;17.96;43.30
74678;BME280;67324;56.326;43.982;2023-05-07T00:21:38;101356.09;;;17.99;43.15
74678;BME280;67324;56.326;43.982;2023-05-07T00:24:05;101360.47;;;17.98;43.23
74678;BME280;67324;56.326;43.982;2023-05-07T00:26:31;101357.16;;;17.96;43.14
74678;BME280;67324;56.326;43.982;2023-05-07T00:28:58;101358.06;;;17.95;43.29
74678;BME280;67324;56.326;43.982;2023-05-07T00:31:24;101362.25;;;17.98;43.33
74678;BME280;67324;56.326;43.982;2023-05-07T00:33:50;101362.38;;;17.96;43.19
74678;BME280;67324;56.326;43.982;2023-05-07T00:36:16;101357.97;;;17.97;43.29
74678;BME280;67324;56.326;43.982;2023-05-07T00:38:42;101364.13;;;17.96;43.27
74678;BME280;67324;56.326;43.982;2023-05-07T00:41:07;101367.72;;;17.95;43.37
74678;BME280;67324;56.326;43.982;2023-05-07T00:43:33;101365.09;;;17.95;43.29
74678;BME280;67324;56.326;43.982;2023-05-07T00:46:00;101368.69;;;17.94;43.19
74678;BME280;67324;56.326;43.982;2023-05-07T00:48:27;101366.88;;;17.94;43.29
74678;BME280;67324;56.326;43.982;2023-05-07T00:50:53;101359.22;;;17.91;43.29
74678;BME280;67324;56.326;43.982;2023-05-07T00:53:20;101367.81;;;17.93;43.29
74678;BME280;67324;56.326;43.982;2023-05-07T00:55:46;101364.47;;;17.91;43.09
74678;BME280;67324;56.326;43.982;2023-05-07T00:58:12;101362.72;;;17.92;43.18
74678;BME280;67324;56.326;43.982;2023-05-07T01:00:38;101367.81;;;17.93;43.28
74678;BME280;67324;56.326;43.982;2023-05-07T01:03:04;101371.63;;;17.89;43.15
74678;BME280;67324;56.326;43.982;2023-05-07T01:05:30;101367.09;;;17.91;43.22
74678;BME280;67324;56.326;43.982;2023-05-07T01:07:56;101370.66;;;17.90;43.28
74678;BME280;67324;56.326;43.982;2023-05-07T01:10:24;101373.38;;;17.89;43.12
74678;BME280;67324;56.326;43.982;2023-05-07T01:12:51;101378.50;;;17.90;43.33
74678;BME280;67324;56.326;43.982;2023-05-07T01:15:17;101373.50;;;17.87;43.24
74678;BME280;67324;56.326;43.982;2023-05-07T01:17:43;101371.81;;;17.86;43.28
74678;BME280;67324;56.326;43.982;2023-05-07T01:20:22;101382.19;;;17.88;43.37
74678;BME280;67324;56.326;43.982;2023-05-07T01:22:50;101376.22;;;17.85;43.16
74678;BME280;67324;56.326;43.982;2023-05-07T01:25:17;101384.22;;;17.84;43.08
74678;BME280;67324;56.326;43.982;2023-05-07T01:27:48;101390.88;;;17.88;43.22
74678;BME280;67324;56.326;43.982;2023-05-07T01:30:34;101381.47;;;17.85;43.17
74678;BME280;67324;56.326;43.982;2023-05-07T01:33:09;101377.28;;;17.83;43.13
74678;BME280;67324;56.326;43.982;2023-05-07T01:35:45;101391.09;;;17.85;43.20
74678;BME280;67324;56.326;43.982;2023-05-07T01:38:13;101392.97;;;17.83;43.25
74678;BME280;67324;56.326;43.982;2023-05-07T01:40:39;101387.03;;;17.81;43.28
74678;BME280;67324;56.326;43.982;2023-05-07T01:43:06;101392.97;;;17.83;43.04
74678;BME280;67324;56.326;43.982;2023-05-07T01:45:34;101399.03;;;17.83;43.17
74678;BME280;67324;56.326;43.982;2023-05-07T01:48:02;101397.28;;;17.84;43.10
74678;BME280;67324;56.326;43.982;2023-05-07T01:50:29;101398.22;;;17.83;43.25
74678;BME280;67324;56.326;43.982;2023-05-07T01:52:56;101398.34;;;17.81;43.21
74678;BME280;67324;56.326;43.982;2023-05-07T01:55:23;101404.41;;;17.82;43.18
74678;BME280;67324;56.326;43.982;2023-05-07T01:57:49;101399.19;;;17.82;43.22
74678;BME280;67324;56.326;43.982;2023-05-07T02:00:16;101407.03;;;17.82;43.25
74678;BME280;67324;56.326;43.982;2023-05-07T02:02:44;101402.72;;;17.81;43.24
74678;BME280;67324;56.326;43.982;2023-05-07T02:05:23;101396.56;;;17.82;43.28
74678;BME280;67324;56.326;43.982;2023-05-07T02:07:57;101396.94;;;17.76;43.14
74678;BME280;67324;56.326;43.982;2023-05-07T02:10:24;101397.81;;;17.76;43.24
74678;BME280;67324;56.326;43.982;2023-05-07T02:12:50;101414.22;;;17.78;43.13
74678;BME280;67324;56.326;43.982;2023-05-07T02:15:17;101407.41;;;17.76;43.22
74678;BME280;67324;56.326;43.982;2023-05-07T02:18:07;101409.19;;;17.75;43.14
74678;BME280;67324;56.326;43.982;2023-05-07T02:20:34;101410.03;;;17.76;43.23
74678;BME280;67324;56.326;43.982;2023-05-07T02:23:00;101407.53;;;17.74;43.19
74678;BME280;67324;56.326;43.982;2023-05-07T02:25:28;101413.50;;;17.76;43.22
74678;BME280;67324;56.326;43.982;2023-05-07T02:27:56;101406.69;;;17.74;43.19
74678;BME280;67324;56.326;43.982;2023-05-07T02:30:29;101413.50;;;17.76;43.15
74678;BME280;67324;56.326;43.982;2023-05-07T02:32:57;101417.06;;;17.75;43.15
74678;BME280;67324;56.326;43.982;2023-05-07T02:35:24;101417.06;;;17.75;43.13
74678;BME280;67324;56.326;43.982;2023-05-07T02:37:51;101418.09;;;17.73;43.17
74678;BME280;67324;56.326;43.982;2023-05-07T02:40:18;101431.09;;;17.74;43.14
74678;BME280;67324;56.326;43.982;2023-05-07T02:42:43;101421.69;;;17.72;43.11
74678;BME280;67324;56.326;43.982;2023-05-07T02:45:10;101434.53;;;17.75;43.09
74678;BME280;67324;56.326;43.982;2023-05-07T02:47:37;101429.41;;;17.73;43.09
74678;BME280;67324;56.326;43.982;2023-05-07T02:50:04;101433.81;;;17.73;43.08
74678;BME280;67324;56.326;43.982;2023-05-07T02:52:30;101433.06;;;17.71;43.17
74678;BME280;67324;56.326;43.982;2023-05-07T02:54:56;101427.97;;;17.69;43.07
74678;BME280;67324;56.326;43.982;2023-05-07T02:57:22;101435.81;;;17.69;43.19
74678;BME280;67324;56.326;43.982;2023-05-07T02:59:48;101439.13;;;17.71;43.08
74678;BME280;67324;56.326;43.982;2023-05-07T03:02:15;101447.84;;;17.72;43.25
74678;BME280;67324;56.326;43.982;2023-05-07T03:04:42;101458.31;;;17.72;43.11
74678;BME280;67324;56.326;43.982;2023-05-07T03:07:08;101452.22;;;17.71;43.16
74678;BME280;67324;56.326;43.982;2023-05-07T03:09:33;101444.72;;;17.67;43.08
74678;BME280;67324;56.326;43.982;2023-05-07T03:11:59;101454.97;;;17.70;43.13
74678;BME280;67324;56.326;43.982;2023-05-07T03:14:27;101455.19;;;17.67;43.11
74678;BME280;67324;56.326;43.982;2023-05-07T03:16:53;101456.00;;;17.67;43.08
74678;BME280;67324;56.326;43.982;2023-05-07T03:19:19;101456.09;;;17.65;43.15
74678;BME280;67324;56.326;43.982;2023-05-07T03:21:45;101459.56;;;17.66;43.11
74678;BME280;67324;56.326;43.982;2023-05-07T03:24:11;101464.69;;;17.68;43.15
74678;BME280;67324;56.326;43.982;2023-05-07T03:26:37;101465.66;;;17.67;43.16
74678;BME280;67324;56.326;43.982;2023-05-07T03:29:03;101465.66;;;17.67;43.14
74678;BME280;67324;56.326;43.982;2023-05-07T03:31:29;101462.31;;;17.64;43.07
74678;BME280;67324;56.326;43.982;2023-05-07T03:33:57;101475.25;;;17.66;43.15
74678;BME280;67324;56.326;43.982;2023-05-07T03:36:24;101462.06;;;17.68;43.11
74678;BME280;67324;56.326;43.982;2023-05-07T03:38:52;101466.56;;;17.65;43.02
74678;BME280;67324;56.326;43.982;2023-05-07T03:41:21;101471.94;;;17.64;43.22
74678;BME280;67324;56.326;43.982;2023-05-07T03:43:47;101469.50;;;17.61;42.98
74678;BME280;67324;56.326;43.982;2023-05-07T03:46:13;101477.16;;;17.64;43.14
74678;BME280;67324;56.326;43.982;2023-05-07T03:48:40;101471.28;;;17.60;43.07
74678;BME280;67324;56.326;43.982;2023-05-07T03:51:06;101466.88;;;17.61;43.09
74678;BME280;67324;56.326;43.982;2023-05-07T03:53:33;101474.66;;;17.62;43.06
74678;BME280;67324;56.326;43.982;2023-05-07T03:55:59;101482.50;;;17.62;43.13
74678;BME280;67324;56.326;43.982;2023-05-07T03:58:26;101488.69;;;17.61;43.18
74678;BME280;67324;56.326;43.982;2023-05-07T04:00:56;101491.28;;;17.61;43.10
74678;BME280;67324;56.326;43.982;2023-05-07T04:03:26;101481.03;;;17.58;43.09
74678;BME280;67324;56.326;43.982;2023-05-07T04:05:53;101480.19;;;17.58;43.13
74678;BME280;67324;56.326;43.982;2023-05-07T04:08:19;101487.81;;;17.61;43.05
74678;BME280;67324;56.326;43.982;2023-05-07T04:10:54;101481.16;;;17.57;42.96
74678;BME280;67324;56.326;43.982;2023-05-07T04:13:20;101487.94;;;17.59;43.04
74678;BME280;67324;56.326;43.982;2023-05-07T04:15:46;101493.19;;;17.59;43.10
74678;BME280;67324;56.326;43.982;2023-05-07T04:18:16;101479.44;;;17.56;42.93
74678;BME280;67324;56.326;43.982;2023-05-07T04:20:45;101487.22;;;17.57;43.08
74678;BME280;67324;56.326;43.982;2023-05-07T04:23:13;101489.91;;;17.56;42.96
74678;BME280;67324;56.326;43.982;2023-05-07T04:25:40;101497.66;;;17.57;43.10
74678;BME280;67324;56.326;43.982;2023-05-07T04:28:20;101495.28;;;17.54;43.02
74678;BME280;67324;56.326;43.982;2023-05-07T04:30:46;101503.81;;;17.56;43.01
74678;BME280;67324;56.326;43.982;2023-05-07T04:33:14;101512.53;;;17.57;43.02
74678;BME280;67324;56.326;43.982;2023-05-07T04:35:43;101497.16;;;17.52;43.02
74678;BME280;67324;56.326;43.982;2023-05-07T04:38:09;101498.94;;;17.52;43.17
74678;BME280;67324;56.326;43.982;2023-05-07T04:40:35;101502.38;;;17.52;43.02
74678;BME280;67324;56.326;43.982;2023-05-07T04:43:02;101513.59;;;17.54;43.07
74678;BME280;67324;56.326;43.982;2023-05-07T04:45:32;101514.41;;;17.55;43.13
74678;BME280;67324;56.326;43.982;2023-05-07T04:47:58;101511.91;;;17.53;43.04
74678;BME280;67324;56.326;43.982;2023-05-07T04:50:25;101513.59;;;17.54;43.09
74678;BME280;67324;56.326;43.982;2023-05-07T04:52:55;101502.59;;;17.49;42.99
74678;BME280;67324;56.326;43.982;2023-05-07T04:55:23;101510.22;;;17.52;43.04
74678;BME280;67324;56.326;43.982;2023-05-07T04:57:49;101506.88;;;17.50;42.98
74678;BME280;67324;56.326;43.982;2023-05-07T05:00:15;101507.84;;;17.49;43.10
74678;BME280;67324;56.326;43.982;2023-05-07T05:02:44;101517.25;;;17.52;43.11
74678;BME280;67324;56.326;43.982;2023-05-07T05:05:13;101513.78;;;17.51;43.08
74678;BME280;67324;56.326;43.982;2023-05-07T05:07:39;101515.69;;;17.49;43.21
74678;BME280;67324;56.326;43.982;2023-05-07T05:10:05;101514.72;;;17.50;42.95
74678;BME280;67324;56.326;43.982;2023-05-07T05:12:34;101514.00;;;17.48;43.03
74678;BME280;67324;56.326;43.982;2023-05-07T05:15:01;101515.69;;;17.49;43.08
74678;BME280;67324;56.326;43.982;2023-05-07T05:17:30;101510.53;;;17.48;43.03
74678;BME280;67324;56.326;43.982;2023-05-07T05:19:56;101511.28;;;17.50;43.11
74678;BME280;67324;56.326;43.982;2023-05-07T05:22:23;101513.06;;;17.49;42.97
74678;BME280;67324;56.326;43.982;2023-05-07T05:24:50;101516.59;;;17.48;42.96
74678;BME280;67324;56.326;43.982;2023-05-07T05:27:16;101512.31;;;17.47;42.93
74678;BME280;67324;56.326;43.982;2023-05-07T05:29:42;101495.91;;;17.45;43.05
74678;BME280;67324;56.326;43.982;2023-05-07T05:32:08;101501.88;;;17.47;43.16
74678;BME280;67324;56.326;43.982;2023-05-07T05:34:34;101512.31;;;17.47;43.03
74678;BME280;67324;56.326;43.982;2023-05-07T05:37:00;101500.38;;;17.43;43.02
74678;BME280;67324;56.326;43.982;2023-05-07T05:39:26;101504.69;;;17.44;42.95
74678;BME280;67324;56.326;43.982;2023-05-07T05:41:52;101509.94;;;17.44;42.95
74678;BME280;67324;56.326;43.982;2023-05-07T05:44:19;101508.22;;;17.43;42.87
74678;BME280;67324;56.326;43.982;2023-05-07T05:46:45;101515.16;;;17.44;43.01
74678;BME280;67324;56.326;43.982;2023-05-07T05:49:11;101518.47;;;17.46;42.92
74678;BME280;67324;56.326;43.982;2023-05-07T05:51:38;101517.66;;;17.46;43.04
74678;BME280;67324;56.326;43.982;2023-05-07T05:54:04;101514.41;;;17.42;42.85
74678;BME280;67324;56.326;43.982;2023-05-07T05:56:31;101521.22;;;17.44;42.96
74678;BME280;67324;56.326;43.982;2023-05-07T05:58:57;101527.28;;;17.45;42.94
74678;BME280;67324;56.326;43.982;2023-05-07T06:01:24;101530.22;;;17.40;42.98
74678;BME280;67324;56.326;43.982;2023-05-07T06:03:51;101533.66;;;17.41;42.95
74678;BME280;67324;56.326;43.982;2023-05-07T06:06:17;101525.81;;;17.41;43.05
74678;BME280;67324;56.326;43.982;2023-05-07T06:08:44;101528.41;;;17.41;42.98
74678;BME280;67324;56.326;43.982;2023-05-07T06:11:12;101524.16;;;17.40;42.90
74678;BME280;67324;56.326;43.982;2023-05-07T06:13:41;101531.78;;;17.43;42.92
74678;BME280;67324;56.326;43.982;2023-05-07T06:16:07;101530.94;;;17.42;42.92
74678;BME280;67324;56.326;43.982;2023-05-07T06:18:32;101534.47;;;17.41;42.97
74678;BME280;67324;56.326;43.982;2023-05-07T06:20:59;101531.03;;;17.41;42.94
74678;BME280;67324;56.326;43.982;2023-05-07T06:23:29;101534.69;;;17.38;42.85
74678;BME280;67324;56.326;43.982;2023-05-07T06:25:55;101527.81;;;17.37;42.98
74678;BME280;67324;56.326;43.982;2023-05-07T06:28:25;101534.59;;;17.40;42.89
74678;BME280;67324;56.326;43.982;2023-05-07T06:30:51;101532.19;;;17.37;42.89
74678;BME280;67324;56.326;43.982;2023-05-07T06:33:17;101528.63;;;17.38;42.92
74678;BME280;67324;56.326;43.982;2023-05-07T06:35:45;101539.09;;;17.38;43.02
74678;BME280;67324;56.326;43.982;2023-05-07T06:38:11;101543.38;;;17.39;42.91
74678;BME280;67324;56.326;43.982;2023-05-07T06:40:38;101543.38;;;17.39;42.92
74678;BME280;67324;56.326;43.982;2023-05-07T06:43:04;101538.13;;;17.39;42.98
74678;BME280;67324;56.326;43.982;2023-05-07T06:45:49;101539.31;;;17.35;42.90
74678;BME280;67324;56.326;43.982;2023-05-07T06:48:15;101529.69;;;17.35;42.92
74678;BME280;67324;56.326;43.982;2023-05-07T06:50:58;101533.88;;;17.38;42.84
74678;BME280;67324;56.326;43.982;2023-05-07T06:53:25;101535.00;;;17.34;42.90
74678;BME280;67324;56.326;43.982;2023-05-07T06:55:52;101532.38;;;17.34;42.86
74678;BME280;67324;56.326;43.982;2023-05-07T06:58:19;101540.06;;;17.37;42.83
74678;BME280;67324;56.326;43.982;2023-05-07T07:00:45;101541.81;;;17.36;42.83
74678;BME280;67324;56.326;43.982;2023-05-07T07:03:12;101540.97;;;17.36;42.91
74678;BME280;67324;56.326;43.982;2023-05-07T07:05:40;101545.47;;;17.34;42.81
74678;BME280;67324;56.326;43.982;2023-05-07T07:08:25;101557.63;;;17.35;42.86
74678;BME280;67324;56.326;43.982;2023-05-07T07:10:51;101549.03;;;17.33;42.93
74678;BME280;67324;56.326;43.982;2023-05-07T07:13:18;101551.72;;;17.31;42.91
74678;BME280;67324;56.326;43.982;2023-05-07T07:15:45;101550.59;;;17.35;42.85
74678;BME280;67324;56.326;43.982;2023-05-07T07:18:10;101556.66;;;17.36;42.94
74678;BME280;67324;56.326;43.982;2023-05-07T07:20:37;101543.81;;;17.33;42.73
74678;BME280;67324;56.326;43.982;2023-05-07T07:23:04;101549.13;;;17.31;42.79
74678;BME280;67324;56.326;43.982;2023-05-07T07:25:30;101544.75;;;17.32;42.93
74678;BME280;67324;56.326;43.982;2023-05-07T07:27:56;101547.25;;;17.33;42.82
74678;BME280;67324;56.326;43.982;2023-05-07T07:30:24;101551.66;;;17.33;42.75
74678;BME280;67324;56.326;43.982;2023-05-07T07:32:50;101549.03;;;17.33;42.97
74678;BME280;67324;56.326;43.982;2023-05-07T07:35:17;101556.03;;;17.32;42.96
74678;BME280;67324;56.326;43.982;2023-05-07T07:38:01;101555.31;;;17.30;42.85
74678;BME280;67324;56.326;43.982;2023-05-07T07:40:29;101550.06;;;17.30;42.87
74678;BME280;67324;56.326;43.982;2023-05-07T07:42:56;101558.66;;;17.32;42.87
74678;BME280;67324;56.326;43.982;2023-05-07T07:45:22;101548.41;;;17.29;42.67
74678;BME280;67324;56.326;43.982;2023-05-07T07:47:50;101543.88;;;17.31;42.86
74678;BME280;67324;56.326;43.982;2023-05-07T07:50:16;101552.78;;;17.29;42.86
74678;BME280;67324;56.326;43.982;2023-05-07T07:52:42;101551.94;;;17.28;42.72
74678;BME280;67324;56.326;43.982;2023-05-07T07:55:09;101547.66;;;17.27;42.71
74678;BME280;67324;56.326;43.982;2023-05-07T07:57:54;101545.06;;;17.27;42.80
74678;BME280;67324;56.326;43.982;2023-05-07T08:00:38;101551.84;;;17.30;42.80
74678;BME280;67324;56.326;43.982;2023-05-07T08:03:05;101546.84;;;17.27;42.81
74678;BME280;67324;56.326;43.982;2023-05-07T08:05:37;101551.13;;;17.28;42.76
74678;BME280;67324;56.326;43.982;2023-05-07T08:08:05;101551.22;;;17.26;42.84
74678;BME280;67324;56.326;43.982;2023-05-07T08:10:33;101552.78;;;17.29;42.80
74678;BME280;67324;56.326;43.982;2023-05-07T08:13:04;101553.00;;;17.26;42.77
74678;BME280;67324;56.326;43.982;2023-05-07T08:15:33;101553.00;;;17.26;42.86
74678;BME280;67324;56.326;43.982;2023-05-07T08:17:59;101560.63;;;17.29;42.72
74678;BME280;67324;56.326;43.982;2023-05-07T08:20:46;101559.78;;;17.28;42.77
74678;BME280;67324;56.326;43.982;2023-05-07T08:23:17;101562.41;;;17.28;42.80
74678;BME280;67324;56.326;43.982;2023-05-07T08:26:01;101560.00;;;17.25;42.94
74678;BME280;67324;56.326;43.982;2023-05-07T08:28:29;101556.44;;;17.26;42.72
74678;BME280;67324;56.326;43.982;2023-05-07T08:30:55;101556.44;;;17.26;42.81
74678;BME280;67324;56.326;43.982;2023-05-07T08:33:23;101550.59;;;17.22;42.74
74678;BME280;67324;56.326;43.982;2023-05-07T08:35:49;101561.66;;;17.26;42.64
74678;BME280;67324;56.326;43.982;2023-05-07T08:38:15;101563.44;;;17.26;42.61
74678;BME280;67324;56.326;43.982;2023-05-07T08:40:41;101555.59;;;17.26;42.74
74678;BME280;67324;56.326;43.982;2023-05-07T08:43:13;101566.06;;;17.26;42.81
74678;BME280;67324;56.326;43.982;2023-05-07T08:45:42;101563.75;;;17.21;42.82
74678;BME280;67324;56.326;43.982;2023-05-07T08:48:16;101573.91;;;17.26;42.58
74678;BME280;67324;56.326;43.982;2023-05-07T08:50:46;101568.88;;;17.22;42.85
74678;BME280;67324;56.326;43.982;2023-05-07T08:53:13;101573.06;;;17.25;42.74
74678;BME280;67324;56.326;43.982;2023-05-07T08:55:41;101574.00;;;17.24;42.77
74678;BME280;67324;56.326;43.982;2023-05-07T08:58:07;101570.66;;;17.22;42.80
74678;BME280;67324;56.326;43.982;2023-05-07T09:00:37;101574.00;;;17.24;42.79
74678;BME280;67324;56.326;43.982;2023-05-07T09:03:04;101556.84;;;17.20;42.70
74678;BME280;67324;56.326;43.982;2023-05-07T09:05:30;101569.63;;;17.25;42.79
74678;BME280;67324;56.326;43.982;2023-05-07T09:07:59;101566.28;;;17.22;42.66
74678;BME280;67324;56.326;43.982;2023-05-07T09:10:25;101574.84;;;17.25;42.77
74678;BME280;67324;56.326;43.982;2023-05-07T09:12:52;101571.59;;;17.21;42.69
74678;BME280;67324;56.326;43.982;2023-05-07T09:15:18;101574.00;;;17.24;42.71
74678;BME280;67324;56.326;43.982;2023-05-07T09:17:44;101570.75;;;17.20;42.64
74678;BME280;67324;56.326;43.982;2023-05-07T09:20:11;101555.16;;;17.19;42.65
74678;BME280;67324;56.326;43.982;2023-05-07T09:22:38;101574.22;;;17.21;42.68
74678;BME280;67324;56.326;43.982;2023-05-07T09:25:08;101578.59;;;17.20;42.68
74678;BME280;67324;56.326;43.982;2023-05-07T09:27:37;101586.34;;;17.22;42.61
74678;BME280;67324;56.326;43.982;2023-05-07T09:30:05;101575.16;;;17.20;42.70
74678;BME280;67324;56.326;43.982;2023-05-07T09:32:50;101583.00;;;17.20;42.71
74678;BME280;67324;56.326;43.982;2023-05-07T09:35:20;101584.78;;;17.19;42.67
74678;BME280;67324;56.326;43.982;2023-05-07T09:37:58;101585.72;;;17.18;42.67
74678;BME280;67324;56.326;43.982;2023-05-07T09:40:27;101584.78;;;17.19;42.56
74678;BME280;67324;56.326;43.982;2023-05-07T09:42:55;101587.28;;;17.21;42.58
74678;BME280;67324;56.326;43.982;2023-05-07T09:45:26;101584.66;;;17.21;42.66
74678;BME280;67324;56.326;43.982;2023-05-07T09:47:55;101576.94;;;17.19;42.65
74678;BME280;67324;56.326;43.982;2023-05-07T09:50:29;101585.63;;;17.20;42.68
74678;BME280;67324;56.326;43.982;2023-05-07T09:52:56;101586.53;;;17.19;42.58
74678;BME280;67324;56.326;43.982;2023-05-07T09:55:25;101589.06;;;17.20;42.69
74678;BME280;67324;56.326;43.982;2023-05-07T09:57:53;101587.41;;;17.19;42.58
74678;BME280;67324;56.326;43.982;2023-05-07T10:00:20;101593.47;;;17.20;42.60
74678;BME280;67324;56.326;43.982;2023-05-07T10:02:50;101594.38;;;17.19;42.73
74678;BME280;67324;56.326;43.982;2023-05-07T10:05:22;101604.75;;;17.20;42.73
74678;BME280;67324;56.326;43.982;2023-05-07T10:07:50;101599.81;;;17.16;42.54
74678;BME280;67324;56.326;43.982;2023-05-07T10:10:17;101607.44;;;17.19;42.46
74678;BME280;67324;56.326;43.982;2023-05-07T10:12:47;101612.69;;;17.19;42.56
74678;BME280;67324;56.326;43.982;2023-05-07T10:15:24;101595.41;;;17.16;42.50
74678;BME280;67324;56.326;43.982;2023-05-07T10:17:54;101602.34;;;17.17;42.57
74678;BME280;67324;56.326;43.982;2023-05-07T10:20:22;101601.41;;;17.18;42.52
74678;BME280;67324;56.326;43.982;2023-05-07T10:22:49;101597.22;;;17.16;42.49
74678;BME280;67324;56.326;43.982;2023-05-07T10:25:28;101596.16;;;17.18;42.60
74678;BME280;67324;56.326;43.982;2023-05-07T10:28:08;101602.34;;;17.17;42.61
74678;BME280;67324;56.326;43.982;2023-05-07T10:33:55;101606.63;;;17.18;42.56
74678;BME280;67324;56.326;43.982;2023-05-07T10:36:23;101606.75;;;17.17;42.43
74678;BME280;67324;56.326;43.982;2023-05-07T10:38:52;101599.72;;;17.17;42.54
74678;BME280;67324;56.326;43.982;2023-05-07T10:41:19;101617.19;;;17.17;42.49
74678;BME280;67324;56.326;43.982;2023-05-07T10:43:47;101611.03;;;17.18;42.52
74678;BME280;67324;56.326;43.982;2023-05-07T10:46:21;101615.41;;;17.17;42.43
74678;BME280;67324;56.326;43.982;2023-05-07T10:51:37;101606.81;;;17.15;42.57
74678;BME280;67324;56.326;43.982;2023-05-07T10:56:42;101608.50;;;17.16;42.67
74678;BME280;67324;56.326;43.982;2023-05-07T10:59:38;101607.66;;;17.16;42.60
74678;BME280;67324;56.326;43.982;2023-05-07T11:05:32;101627.75;;;17.15;42.47
74678;BME280;67324;56.326;43.982;2023-05-07T11:08:24;101616.53;;;17.13;42.36
74678;BME280;67324;56.326;43.982;2023-05-07T11:10:59;101609.66;;;17.12;42.54
74678;BME280;67324;56.326;43.982;2023-05-07T11:13:49;101623.34;;;17.16;42.47
74678;BME280;67324;56.326;43.982;2023-05-07T11:16:48;101606.81;;;17.15;42.59
74678;BME280;67324;56.326;43.982;2023-05-07T11:19:54;101618.25;;;17.14;42.55
74678;BME280;67324;56.326;43.982;2023-05-07T11:22:40;101613.31;;;17.10;42.55
74678;BME280;67324;56.326;43.982;2023-05-07T11:25:27;101608.69;;;17.13;42.51
74678;BME280;67324;56.326;43.982;2023-05-07T11:28:09;101616.66;;;17.12;42.60
74678;BME280;67324;56.326;43.982;2023-05-07T11:30:42;101613.19;;;17.11;42.52
74678;BME280;67324;56.326;43.982;2023-05-07T11:33:10;101635.06;;;17.10;42.51
74678;BME280;67324;56.326;43.982;2023-05-07T11:35:36;101629.63;;;17.13;42.51
74678;BME280;67324;56.326;43.982;2023-05-07T11:38:04;101634.09;;;17.11;42.41
74678;BME280;67324;56.326;43.982;2023-05-07T11:40:33;101638.28;;;17.14;42.59
74678;BME280;67324;56.326;43.982;2023-05-07T11:43:10;101642.59;;;17.15;42.42
74678;BME280;67324;56.326;43.982;2023-05-07T11:45:36;101632.34;;;17.12;42.49
74678;BME280;67324;56.326;43.982;2023-05-07T11:48:02;101631.59;;;17.10;42.49
74678;BME280;67324;56.326;43.982;2023-05-07T11:50:28;101628.88;;;17.11;42.57
74678;BME280;67324;56.326;43.982;2023-05-07T11:53:13;101636.63;;;17.13;42.51
74678;BME280;67324;56.326;43.982;2023-05-07T11:55:39;101642.69;;;17.13;42.53
74678;BME280;67324;56.326;43.982;2023-05-07T11:58:05;101640.28;;;17.10;42.36
74678;BME280;67324;56.326;43.982;2023-05-07T12:00:30;101647.09;;;17.13;42.39
74678;BME280;67324;56.326;43.982;2023-05-07T12:02:56;101635.69;;;17.14;42.52
74678;BME280;67324;56.326;43.982;2023-05-07T12:05:28;101643.63;;;17.12;42.43
74678;BME280;67324;56.326;43.982;2023-05-07T12:07:57;101641.94;;;17.11;42.52
74678;BME280;67324;56.326;43.982;2023-05-07T12:10:23;101647.16;;;17.11;42.27
74678;BME280;67324;56.326;43.982;2023-05-07T12:12:50;101653.16;;;17.13;42.46
74678;BME280;67324;56.326;43.982;2023-05-07T12:15:16;101642.06;;;17.10;42.47
74678;BME280;67324;56.326;43.982;2023-05-07T12:17:43;101655.97;;;17.10;42.57
74678;BME280;67324;56.326;43.982;2023-05-07T12:20:28;101648.03;;;17.12;42.62
74678;BME280;67324;56.326;43.982;2023-05-07T12:22:54;101656.72;;;17.12;42.39
74678;BME280;67324;56.326;43.982;2023-05-07T12:25:20;101661.09;;;17.12;42.32
74678;BME280;67324;56.326;43.982;2023-05-07T12:27:51;101650.00;;;17.08;42.37
74678;BME280;67324;56.326;43.982;2023-05-07T12:30:18;101663.72;;;17.12;42.45
74678;BME280;67324;56.326;43.982;2023-05-07T12:32:45;101668.09;;;17.11;42.24
74678;BME280;67324;56.326;43.982;2023-05-07T12:35:11;101651.78;;;17.08;42.37
74678;BME280;67324;56.326;43.982;2023-05-07T12:37:37;101660.25;;;17.11;42.33
74678;BME280;67324;56.326;43.982;2023-05-07T12:40:10;101655.97;;;17.10;42.41
74678;BME280;67324;56.326;43.982;2023-05-07T12:42:37;101649.91;;;17.10;42.38
74678;BME280;67324;56.326;43.982;2023-05-07T12:45:15;101661.94;;;17.12;42.43
74678;BME280;67324;56.326;43.982;2023-05-07T12:47:45;101663.81;;;17.10;42.35
74678;BME280;67324;56.326;43.982;2023-05-07T12:50:11;101668.94;;;17.12;42.34
74678;BME280;67324;56.326;43.982;2023-05-07T12:52:38;101660.38;;;17.10;42.36
74678;BME280;67324;56.326;43.982;2023-05-07T12:55:05;101674.47;;;17.07;42.28
74678;BME280;67324;56.326;43.982;2023-05-07T12:57:45;101668.38;;;17.07;42.41
74678;BME280;67324;56.326;43.982;2023-05-07T13:00:13;101683.06;;;17.09;42.39
74678;BME280;67324;56.326;43.982;2023-05-07T13:02:41;101676.03;;;17.10;42.33